createdAt,value
2017-11-05T00:00:26.223Z,950.57
2017-11-05T00:01:26.241Z,950.56
2017-11-05T00:02:26.270Z,950.54
2017-11-05T00:03:26.282Z,950.5
2017-11-05T00:04:26.300Z,950.5
2017-11-05T00:05:26.317Z,950.46
2017-11-05T00:06:26.337Z,950.43
2017-11-05T00:07:26.405Z,950.42
2017-11-05T00:08:26.375Z,950.38
2017-11-05T00:09:26.395Z,950.35
2017-11-05T00:10:26.437Z,950.33
2017-11-05T00:11:26.433Z,950.3
2017-11-05T00:12:26.451Z,950.36
2017-11-05T00:13:26.472Z,950.33
2017-11-05T00:14:26.490Z,950.35
2017-11-05T00:15:26.509Z,950.34
2017-11-05T00:16:26.527Z,950.37
2017-11-05T00:17:26.548Z,950.32
2017-11-05T00:18:26.566Z,950.35
2017-11-05T00:19:26.585Z,950.33
2017-11-05T00:20:26.603Z,950.32
2017-11-05T00:21:26.630Z,950.31
2017-11-05T00:22:26.693Z,950.27
2017-11-05T00:23:26.660Z,950.27
2017-11-05T00:24:26.681Z,950.28
2017-11-05T00:25:26.720Z,950.26
2017-11-05T00:26:26.718Z,950.24
2017-11-05T00:27:26.743Z,950.21
2017-11-05T00:28:26.757Z,950.21
2017-11-05T00:29:26.775Z,950.16
2017-11-05T00:30:26.794Z,950.18
2017-11-05T00:31:26.814Z,950.19
2017-11-05T00:32:26.834Z,950.19
2017-11-05T00:33:26.854Z,950.17
2017-11-05T00:34:26.871Z,950.12
2017-11-05T00:35:26.891Z,950.13
2017-11-05T00:36:26.910Z,950.12
2017-11-05T00:37:26.979Z,950.09
2017-11-05T00:38:26.948Z,950.05
2017-11-05T00:39:26.968Z,950.04
2017-11-05T00:40:27.006Z,950
2017-11-05T00:41:27.005Z,950.04
2017-11-05T00:42:27.023Z,950.06
2017-11-05T00:43:27.094Z,950.07
2017-11-05T00:44:27.063Z,950.09
2017-11-05T00:45:27.080Z,950.07
2017-11-05T00:46:27.107Z,950.06
2017-11-05T00:47:27.119Z,950.03
2017-11-05T00:48:27.139Z,950.03
2017-11-05T00:49:27.157Z,950.02
2017-11-05T00:50:27.177Z,950.01
2017-11-05T00:51:27.194Z,949.97
2017-11-05T00:52:27.213Z,949.95
2017-11-05T00:53:27.283Z,949.98
2017-11-05T00:54:27.252Z,949.97
2017-11-05T00:55:27.290Z,949.92
2017-11-05T00:56:27.290Z,949.88
2017-11-05T00:57:27.308Z,949.91
2017-11-05T00:58:27.328Z,949.92
2017-11-05T00:59:27.347Z,949.88
2017-11-05T01:00:27.364Z,949.92
2017-11-05T01:01:27.385Z,949.87
2017-11-05T01:02:27.405Z,949.92
2017-11-05T01:03:27.424Z,949.9
2017-11-05T01:04:27.442Z,949.85
2017-11-05T01:05:27.462Z,949.8
2017-11-05T01:06:27.479Z,949.81
2017-11-05T01:07:27.498Z,949.77
2017-11-05T01:08:27.521Z,949.71
2017-11-05T01:09:27.536Z,949.69
2017-11-05T01:10:27.574Z,949.7
2017-11-05T01:11:27.628Z,949.69
2017-11-05T01:12:27.593Z,949.66
2017-11-05T01:13:27.612Z,949.63
2017-11-05T01:14:27.629Z,949.63
2017-11-05T01:15:27.655Z,949.57
2017-11-05T01:16:27.668Z,949.57
2017-11-05T01:17:27.685Z,949.56
2017-11-05T01:18:27.705Z,949.54
2017-11-05T01:19:27.724Z,949.52
2017-11-05T01:20:27.741Z,949.51
2017-11-05T01:21:27.761Z,949.46
2017-11-05T01:22:27.790Z,949.5
2017-11-05T01:23:27.813Z,949.43
2017-11-05T01:24:27.825Z,949.42
2017-11-05T01:25:27.841Z,949.36
2017-11-05T01:26:27.854Z,949.32
2017-11-05T01:27:27.874Z,949.37
2017-11-05T01:28:27.891Z,949.36
2017-11-05T01:29:27.909Z,949.35
2017-11-05T01:30:27.927Z,949.38
2017-11-05T01:31:27.947Z,949.4
2017-11-05T01:32:27.965Z,949.35
2017-11-05T01:33:27.983Z,949.36
2017-11-05T01:34:28.003Z,949.4
2017-11-05T01:35:28.022Z,949.39
2017-11-05T01:36:28.039Z,949.36
2017-11-05T01:37:28.056Z,949.3
2017-11-05T01:38:28.077Z,949.32
2017-11-05T01:39:28.095Z,949.29
2017-11-05T01:40:28.112Z,949.22
2017-11-05T01:41:28.131Z,949.23
2017-11-05T01:42:28.150Z,949.18
2017-11-05T01:43:28.170Z,949.14
2017-11-05T01:44:28.188Z,949.12
2017-11-05T01:45:28.207Z,949.11
2017-11-05T01:46:28.282Z,949.12
2017-11-05T01:47:28.243Z,949.12
2017-11-05T01:48:28.262Z,949.08
2017-11-05T01:49:28.282Z,949.08
2017-11-05T01:50:28.299Z,949.02
2017-11-05T01:51:28.368Z,948.99
2017-11-05T01:52:28.337Z,948.94
2017-11-05T01:53:28.355Z,948.93
2017-11-05T01:54:28.373Z,948.9
2017-11-05T01:55:28.392Z,948.84
2017-11-05T01:56:28.411Z,948.79
2017-11-05T01:57:28.430Z,948.8
2017-11-05T01:58:28.448Z,948.78
2017-11-05T01:59:28.466Z,948.74
2017-11-05T02:00:28.486Z,948.75
2017-11-05T02:01:28.504Z,948.77
2017-11-05T02:02:28.527Z,948.73
2017-11-05T02:03:28.542Z,948.74
2017-11-05T02:04:28.560Z,948.69
2017-11-05T02:05:28.577Z,948.65
2017-11-05T02:06:28.647Z,948.65
2017-11-05T02:07:28.615Z,948.58
2017-11-05T02:08:28.634Z,948.56
2017-11-05T02:09:28.654Z,948.55
2017-11-05T02:10:28.671Z,948.53
2017-11-05T02:11:28.689Z,948.51
2017-11-05T02:12:28.710Z,948.47
2017-11-05T02:13:28.727Z,948.5
2017-11-05T02:14:28.747Z,948.46
2017-11-05T02:15:28.765Z,948.49
2017-11-05T02:16:28.783Z,948.48
2017-11-05T02:17:28.801Z,948.46
2017-11-05T02:18:28.820Z,948.43
2017-11-05T02:19:28.844Z,948.45
2017-11-05T02:20:28.857Z,948.43
2017-11-05T02:21:28.925Z,948.36
2017-11-05T02:22:28.905Z,948.33
2017-11-05T02:23:28.918Z,948.31
2017-11-05T02:24:28.930Z,948.3
2017-11-05T02:25:28.953Z,948.23
2017-11-05T02:26:28.972Z,948.21
2017-11-05T02:27:28.986Z,948.19
2017-11-05T02:28:29.005Z,948.18
2017-11-05T02:29:29.024Z,948.15
2017-11-05T02:30:29.044Z,948.08
2017-11-05T02:31:29.066Z,948.09
2017-11-05T02:32:29.080Z,948.05
2017-11-05T02:33:29.099Z,948.02
2017-11-05T02:34:29.116Z,947.99
2017-11-05T02:35:29.134Z,947.97
2017-11-05T02:36:29.204Z,947.92
2017-11-05T02:37:29.171Z,947.88
2017-11-05T02:38:29.189Z,947.82
2017-11-05T02:39:29.209Z,947.82
2017-11-05T02:40:29.228Z,947.82
2017-11-05T02:41:29.247Z,947.91
2017-11-05T02:42:29.263Z,947.9
2017-11-05T02:43:29.282Z,947.91
2017-11-05T02:44:29.301Z,947.88
2017-11-05T02:45:29.320Z,947.93
2017-11-05T02:46:29.337Z,947.93
2017-11-05T02:47:29.355Z,947.94
2017-11-05T02:48:29.375Z,947.88
2017-11-05T02:49:29.391Z,947.86
2017-11-05T02:50:29.412Z,947.81
2017-11-05T02:51:29.479Z,947.8
2017-11-05T02:52:29.447Z,947.8
2017-11-05T02:53:29.464Z,947.77
2017-11-05T02:54:29.494Z,947.78
2017-11-05T02:55:29.502Z,947.75
2017-11-05T02:56:29.519Z,947.79
2017-11-05T02:57:29.539Z,947.74
2017-11-05T02:58:29.557Z,947.75
2017-11-05T02:59:29.574Z,947.68
2017-11-05T03:00:29.594Z,947.65
2017-11-05T03:01:29.610Z,947.68
2017-11-05T03:02:29.633Z,947.7
2017-11-05T03:03:29.648Z,947.7
2017-11-05T03:04:29.664Z,947.68
2017-11-05T03:05:29.682Z,947.72
2017-11-05T03:06:29.701Z,947.69
2017-11-05T03:07:29.718Z,947.63
2017-11-05T03:08:29.738Z,947.58
2017-11-05T03:09:29.754Z,947.57
2017-11-05T03:10:29.824Z,947.57
2017-11-05T03:11:29.790Z,947.56
2017-11-05T03:12:29.810Z,947.52
2017-11-05T03:13:29.828Z,947.52
2017-11-05T03:14:29.846Z,947.5
2017-11-05T03:15:29.863Z,947.47
2017-11-05T03:16:29.879Z,947.42
2017-11-05T03:17:29.918Z,947.41
2017-11-05T03:18:29.917Z,947.4
2017-11-05T03:19:29.935Z,947.39
2017-11-05T03:20:29.953Z,947.37
2017-11-05T03:21:29.972Z,947.37
2017-11-05T03:22:29.989Z,947.36
2017-11-05T03:23:30.007Z,947.37
2017-11-05T03:24:30.026Z,947.38
2017-11-05T03:25:30.094Z,947.39
2017-11-05T03:26:30.065Z,947.45
2017-11-05T03:27:30.079Z,947.43
2017-11-05T03:28:30.098Z,947.44
2017-11-05T03:29:30.116Z,947.43
2017-11-05T03:30:30.134Z,947.42
2017-11-05T03:31:30.151Z,947.39
2017-11-05T03:32:30.171Z,947.36
2017-11-05T03:33:30.187Z,947.34
2017-11-05T03:34:30.206Z,947.35
2017-11-05T03:35:30.224Z,947.34
2017-11-05T03:36:30.242Z,947.31
2017-11-05T03:37:30.259Z,947.29
2017-11-05T03:38:30.277Z,947.19
2017-11-05T03:39:30.297Z,947.16
2017-11-05T03:40:30.363Z,947.13
2017-11-05T03:41:30.331Z,947.16
2017-11-05T03:42:30.349Z,947.2
2017-11-05T03:43:30.368Z,947.15
2017-11-05T03:44:30.385Z,947.07
2017-11-05T03:45:30.403Z,947.08
2017-11-05T03:46:30.421Z,947.15
2017-11-05T03:47:30.439Z,947.24
2017-11-05T03:48:30.456Z,947.26
2017-11-05T03:49:30.475Z,947.24
2017-11-05T03:50:30.492Z,947.24
2017-11-05T03:51:30.509Z,947.22
2017-11-05T03:52:30.529Z,947.14
2017-11-05T03:53:30.546Z,947.06
2017-11-05T03:54:30.569Z,947.04
2017-11-05T03:55:30.637Z,947.11
2017-11-05T03:56:30.600Z,947.09
2017-11-05T03:57:30.620Z,947.08
2017-11-05T03:58:30.637Z,947.07
2017-11-05T03:59:30.655Z,947.03
2017-11-05T04:00:30.674Z,947.06
2017-11-05T04:01:30.692Z,947.06
2017-11-05T04:02:30.707Z,947
2017-11-05T04:03:30.728Z,947.05
2017-11-05T04:04:30.745Z,947.06
2017-11-05T04:05:30.764Z,947
2017-11-05T04:06:30.780Z,946.99
2017-11-05T04:07:30.799Z,946.95
2017-11-05T04:08:30.817Z,946.92
2017-11-05T04:09:30.839Z,946.93
2017-11-05T04:10:30.853Z,946.89
2017-11-05T04:11:30.871Z,946.88
2017-11-05T04:12:30.889Z,946.93
2017-11-05T04:13:30.906Z,946.85
2017-11-05T04:14:30.925Z,946.89
2017-11-05T04:15:30.944Z,946.87
2017-11-05T04:16:30.963Z,946.84
2017-11-05T04:17:30.978Z,946.81
2017-11-05T04:18:30.996Z,946.69
2017-11-05T04:19:31.015Z,946.69
2017-11-05T04:20:31.034Z,946.67
2017-11-05T04:21:31.050Z,946.74
2017-11-05T04:22:31.070Z,946.72
2017-11-05T04:23:31.088Z,946.7
2017-11-05T04:24:31.125Z,946.69
2017-11-05T04:25:31.122Z,946.64
2017-11-05T04:26:31.144Z,946.64
2017-11-05T04:27:31.209Z,946.61
2017-11-05T04:28:31.177Z,946.54
2017-11-05T04:29:31.195Z,946.56
2017-11-05T04:30:31.216Z,946.55
2017-11-05T04:31:31.232Z,946.57
2017-11-05T04:32:31.250Z,946.58
2017-11-05T04:33:31.267Z,946.59
2017-11-05T04:34:31.285Z,946.6
2017-11-05T04:35:31.302Z,946.63
2017-11-05T04:36:31.321Z,946.66
2017-11-05T04:37:31.339Z,946.69
2017-11-05T04:38:31.359Z,946.63
2017-11-05T04:39:31.377Z,946.63
2017-11-05T04:40:31.395Z,946.57
2017-11-05T04:41:31.412Z,946.52
2017-11-05T04:42:31.430Z,946.53
2017-11-05T04:43:31.448Z,946.56
2017-11-05T04:44:31.515Z,946.56
2017-11-05T04:45:31.484Z,946.58
2017-11-05T04:46:31.501Z,946.6
2017-11-05T04:47:31.520Z,946.57
2017-11-05T04:48:31.539Z,946.58
2017-11-05T04:49:31.557Z,946.53
2017-11-05T04:50:31.574Z,946.53
2017-11-05T04:51:31.591Z,946.53
2017-11-05T04:52:31.610Z,946.51
2017-11-05T04:53:31.630Z,946.48
2017-11-05T04:54:31.646Z,946.42
2017-11-05T04:55:31.665Z,946.41
2017-11-05T04:56:31.684Z,946.48
2017-11-05T04:57:31.701Z,946.47
2017-11-05T04:58:31.718Z,946.61
2017-11-05T04:59:31.788Z,946.63
2017-11-05T05:00:31.754Z,946.59
2017-11-05T05:01:31.772Z,946.55
2017-11-05T05:02:31.791Z,946.51
2017-11-05T05:03:31.808Z,946.5
2017-11-05T05:04:31.828Z,946.46
2017-11-05T05:05:31.845Z,946.47
2017-11-05T05:06:31.863Z,946.52
2017-11-05T05:07:31.880Z,946.48
2017-11-05T05:08:31.896Z,946.53
2017-11-05T05:09:31.916Z,946.53
2017-11-05T05:10:31.934Z,946.5
2017-11-05T05:11:31.953Z,946.54
2017-11-05T05:12:31.968Z,946.57
2017-11-05T05:13:31.986Z,946.6
2017-11-05T05:14:32.306Z,946.6
2017-11-05T05:15:32.025Z,946.54
2017-11-05T05:16:32.043Z,946.49
2017-11-05T05:17:32.059Z,946.48
2017-11-05T05:18:32.077Z,946.5
2017-11-05T05:19:32.094Z,946.52
2017-11-05T05:20:32.116Z,946.59
2017-11-05T05:21:32.130Z,946.58
2017-11-05T05:22:32.148Z,946.6
2017-11-05T05:23:32.165Z,946.66
2017-11-05T05:24:32.183Z,946.59
2017-11-05T05:25:32.204Z,946.58
2017-11-05T05:26:32.219Z,946.62
2017-11-05T05:27:32.237Z,946.52
2017-11-05T05:28:32.253Z,946.53
2017-11-05T05:29:32.272Z,946.47
2017-11-05T05:30:32.289Z,946.48
2017-11-05T05:31:32.329Z,946.43
2017-11-05T05:32:32.326Z,946.46
2017-11-05T05:33:32.395Z,946.42
2017-11-05T05:34:32.361Z,946.41
2017-11-05T05:35:32.380Z,946.43
2017-11-05T05:36:32.399Z,946.42
2017-11-05T05:37:32.416Z,946.39
2017-11-05T05:38:32.433Z,946.46
2017-11-05T05:39:32.452Z,946.5
2017-11-05T05:40:32.472Z,946.47
2017-11-05T05:41:32.489Z,946.49
2017-11-05T05:42:32.505Z,946.49
2017-11-05T05:43:32.524Z,946.46
2017-11-05T05:44:32.543Z,946.43
2017-11-05T05:45:32.564Z,946.43
2017-11-05T05:46:32.579Z,946.42
2017-11-05T05:47:32.598Z,946.42
2017-11-05T05:48:32.614Z,946.44
2017-11-05T05:49:32.633Z,946.47
2017-11-05T05:50:32.700Z,946.45
2017-11-05T05:51:32.670Z,946.49
2017-11-05T05:52:32.686Z,946.52
2017-11-05T05:53:32.705Z,946.57
2017-11-05T05:54:32.722Z,946.52
2017-11-05T05:55:32.742Z,946.53
2017-11-05T05:56:32.764Z,946.58
2017-11-05T05:57:32.776Z,946.51
2017-11-05T05:58:32.795Z,946.54
2017-11-05T05:59:32.812Z,946.52
2017-11-05T06:00:32.832Z,946.53
2017-11-05T06:01:32.850Z,946.54
2017-11-05T06:02:32.867Z,946.52
2017-11-05T06:03:32.885Z,946.49
2017-11-05T06:04:32.904Z,946.53
2017-11-05T06:05:32.972Z,946.52
2017-11-05T06:06:32.940Z,946.62
2017-11-05T06:07:32.959Z,946.73
2017-11-05T06:08:32.979Z,946.84
2017-11-05T06:09:32.996Z,946.87
2017-11-05T06:10:33.016Z,946.84
2017-11-05T06:11:33.030Z,946.88
2017-11-05T06:12:33.049Z,946.95
2017-11-05T06:13:33.066Z,946.89
2017-11-05T06:14:33.084Z,946.93
2017-11-05T06:15:33.101Z,947.09
2017-11-05T06:16:33.121Z,946.97
2017-11-05T06:17:33.139Z,946.98
2017-11-05T06:18:33.164Z,947.06
2017-11-05T06:19:33.174Z,947.11
2017-11-05T06:20:33.192Z,947.13
2017-11-05T06:21:33.211Z,947.14
2017-11-05T06:22:33.228Z,947.06
2017-11-05T06:23:33.250Z,947.13
2017-11-05T06:24:33.266Z,947.03
2017-11-05T06:25:33.281Z,947.04
2017-11-05T06:26:33.300Z,947.1
2017-11-05T06:27:33.317Z,947.15
2017-11-05T06:28:33.349Z,947.16
2017-11-05T06:29:33.353Z,947.17
2017-11-05T06:30:33.372Z,947.17
2017-11-05T06:31:33.389Z,947.07
2017-11-05T06:32:33.405Z,947.05
2017-11-05T06:33:33.424Z,947.19
2017-11-05T06:34:33.441Z,947.3
2017-11-05T06:35:33.458Z,947.16
2017-11-05T06:36:33.476Z,947.16
2017-11-05T06:37:33.543Z,947.13
2017-11-05T06:38:33.512Z,947.08
2017-11-05T06:39:33.532Z,947.12
2017-11-05T06:40:33.546Z,947.03
2017-11-05T06:41:33.562Z,947.04
2017-11-05T06:42:33.584Z,946.98
2017-11-05T06:43:33.598Z,946.99
2017-11-05T06:44:33.614Z,946.98
2017-11-05T06:45:33.636Z,947.01
2017-11-05T06:46:33.651Z,947.03
2017-11-05T06:47:33.675Z,947.02
2017-11-05T06:48:33.686Z,947.03
2017-11-05T06:49:33.702Z,946.98
2017-11-05T06:50:33.719Z,947
2017-11-05T06:51:33.736Z,946.98
2017-11-05T06:52:33.754Z,947.03
2017-11-05T06:53:33.774Z,947.02
2017-11-05T06:54:33.790Z,947.01
2017-11-05T06:55:33.807Z,947.06
2017-11-05T06:56:33.875Z,947.07
2017-11-05T06:57:33.843Z,947.05
2017-11-05T06:58:33.860Z,947.11
2017-11-05T06:59:33.878Z,947.05
2017-11-05T07:00:33.897Z,947.12
2017-11-05T07:01:33.913Z,947.13
2017-11-05T07:02:33.932Z,947.11
2017-11-05T07:03:33.949Z,947.12
2017-11-05T07:04:33.967Z,947.13
2017-11-05T07:05:33.984Z,947.17
2017-11-05T07:06:34.002Z,947.15
2017-11-05T07:07:34.021Z,947.15
2017-11-05T07:08:34.038Z,947.14
2017-11-05T07:09:34.055Z,947.14
2017-11-05T07:10:34.075Z,947.12
2017-11-05T07:11:34.144Z,947.07
2017-11-05T07:12:34.111Z,947.07
2017-11-05T07:13:34.130Z,947.05
2017-11-05T07:14:34.148Z,947.04
2017-11-05T07:15:34.170Z,947.01
2017-11-05T07:16:34.183Z,947
2017-11-05T07:17:34.202Z,946.98
2017-11-05T07:18:34.220Z,947
2017-11-05T07:19:34.246Z,947.05
2017-11-05T07:20:34.256Z,947.04
2017-11-05T07:21:34.275Z,947.04
2017-11-05T07:22:34.294Z,947.05
2017-11-05T07:23:34.311Z,947.06
2017-11-05T07:24:34.329Z,947.08
2017-11-05T07:25:34.347Z,947.09
2017-11-05T07:26:34.426Z,947.16
2017-11-05T07:27:34.382Z,947.09
2017-11-05T07:28:34.401Z,947.16
2017-11-05T07:29:34.420Z,947.2
2017-11-05T07:30:34.453Z,947.17
2017-11-05T07:31:34.454Z,947.18
2017-11-05T07:32:34.479Z,947.17
2017-11-05T07:33:34.492Z,947.17
2017-11-05T07:34:34.510Z,947.16
2017-11-05T07:35:34.530Z,947.2
2017-11-05T07:36:34.548Z,947.21
2017-11-05T07:37:34.565Z,947.22
2017-11-05T07:38:34.583Z,947.2
2017-11-05T07:39:34.602Z,947.19
2017-11-05T07:40:34.620Z,947.16
2017-11-05T07:41:34.691Z,947.14
2017-11-05T07:42:34.657Z,947.1
2017-11-05T07:43:34.675Z,947.11
2017-11-05T07:44:34.695Z,947.07
2017-11-05T07:45:34.716Z,947.04
2017-11-05T07:46:34.731Z,947.08
2017-11-05T07:47:34.750Z,947.09
2017-11-05T07:48:34.768Z,947.08
2017-11-05T07:49:34.787Z,947.1
2017-11-05T07:50:34.806Z,947.12
2017-11-05T07:51:34.824Z,947.1
2017-11-05T07:52:34.849Z,947.12
2017-11-05T07:53:34.862Z,947.11
2017-11-05T07:54:34.880Z,947.12
2017-11-05T07:55:34.912Z,947.07
2017-11-05T07:56:34.917Z,947.04
2017-11-05T07:57:34.986Z,947.07
2017-11-05T07:58:34.956Z,947.03
2017-11-05T07:59:34.975Z,947.02
2017-11-05T08:00:34.996Z,946.99
2017-11-05T08:01:35.013Z,946.98
2017-11-05T08:02:35.031Z,946.96
2017-11-05T08:03:35.050Z,946.99
2017-11-05T08:04:35.071Z,946.95
2017-11-05T08:05:35.089Z,946.97
2017-11-05T08:06:35.110Z,946.99
2017-11-05T08:07:35.125Z,946.97
2017-11-05T08:08:35.145Z,947
2017-11-05T08:09:35.163Z,947
2017-11-05T08:10:35.184Z,946.95
2017-11-05T08:11:35.200Z,947.01
2017-11-05T08:12:35.271Z,946.96
2017-11-05T08:13:35.240Z,947.04
2017-11-05T08:14:35.258Z,947.04
2017-11-05T08:15:35.278Z,947.03
2017-11-05T08:16:35.295Z,947.02
2017-11-05T08:17:35.314Z,947.06
2017-11-05T08:18:35.332Z,947.07
2017-11-05T08:19:35.352Z,947.06
2017-11-05T08:20:35.372Z,947.1
2017-11-05T08:21:35.390Z,947.09
2017-11-05T08:22:35.408Z,947.1
2017-11-05T08:23:35.428Z,947.11
2017-11-05T08:24:35.447Z,947.08
2017-11-05T08:25:35.835Z,947.09
2017-11-05T08:26:35.485Z,947.08
2017-11-05T08:27:35.503Z,947.08
2017-11-05T08:28:35.525Z,947.13
2017-11-05T08:29:35.542Z,947.04
2017-11-05T08:30:35.563Z,947.05
2017-11-05T08:31:35.581Z,947
2017-11-05T08:32:35.600Z,947.03
2017-11-05T08:33:35.643Z,947.02
2017-11-05T08:34:35.640Z,947.05
2017-11-05T08:35:35.659Z,947.03
2017-11-05T08:36:35.680Z,947.02
2017-11-05T08:37:35.697Z,947
2017-11-05T08:38:35.715Z,946.96
2017-11-05T08:39:35.737Z,947
2017-11-05T08:40:35.755Z,946.94
2017-11-05T08:41:35.774Z,946.95
2017-11-05T08:42:35.793Z,946.93
2017-11-05T08:43:35.813Z,946.92
2017-11-05T08:44:35.832Z,946.88
2017-11-05T08:45:35.852Z,946.91
2017-11-05T08:46:35.872Z,946.89
2017-11-05T08:47:35.939Z,946.91
2017-11-05T08:48:35.908Z,946.92
2017-11-05T08:49:35.929Z,946.89
2017-11-05T08:50:35.954Z,946.94
2017-11-05T08:51:35.982Z,946.95
2017-11-05T08:52:36.047Z,947.01
2017-11-05T08:53:36.006Z,946.94
2017-11-05T08:54:36.025Z,946.92
2017-11-05T08:55:36.043Z,946.87
2017-11-05T08:56:36.062Z,946.85
2017-11-05T08:57:36.082Z,946.89
2017-11-05T08:58:36.100Z,946.82
2017-11-05T08:59:36.120Z,946.8
2017-11-05T09:00:36.139Z,946.78
2017-11-05T09:01:36.158Z,946.73
2017-11-05T09:02:36.177Z,946.72
2017-11-05T09:03:36.196Z,946.74
2017-11-05T09:04:36.214Z,946.67
2017-11-05T09:05:36.283Z,946.77
2017-11-05T09:06:36.252Z,946.73
2017-11-05T09:07:36.273Z,946.7
2017-11-05T09:08:36.296Z,946.7
2017-11-05T09:09:36.309Z,946.71
2017-11-05T09:10:36.328Z,946.65
2017-11-05T09:11:36.349Z,946.68
2017-11-05T09:12:36.373Z,946.68
2017-11-05T09:13:36.384Z,946.67
2017-11-05T09:14:36.407Z,946.73
2017-11-05T09:15:36.425Z,946.68
2017-11-05T09:16:36.443Z,946.68
2017-11-05T09:17:36.461Z,946.71
2017-11-05T09:18:36.481Z,946.74
2017-11-05T09:19:36.502Z,946.79
2017-11-05T09:20:36.569Z,946.79
2017-11-05T09:21:36.538Z,946.86
2017-11-05T09:22:36.557Z,946.9
2017-11-05T09:23:36.617Z,946.93
2017-11-05T09:24:36.595Z,946.91
2017-11-05T09:25:36.615Z,946.91
2017-11-05T09:26:36.639Z,946.88
2017-11-05T09:27:36.655Z,946.9
2017-11-05T09:28:36.672Z,946.84
2017-11-05T09:29:36.696Z,946.87
2017-11-05T09:30:36.736Z,946.87
2017-11-05T09:31:36.731Z,946.83
2017-11-05T09:32:36.749Z,946.88
2017-11-05T09:33:36.778Z,946.89
2017-11-05T09:34:36.790Z,946.85
2017-11-05T09:35:36.810Z,946.87
2017-11-05T09:36:36.829Z,946.93
2017-11-05T09:37:36.847Z,946.9
2017-11-05T09:38:36.920Z,946.88
2017-11-05T09:39:36.887Z,946.84
2017-11-05T09:40:36.908Z,946.87
2017-11-05T09:41:36.928Z,946.88
2017-11-05T09:42:36.946Z,946.85
2017-11-05T09:43:36.967Z,946.88
2017-11-05T09:44:36.998Z,946.89
2017-11-05T09:45:37.017Z,946.93
2017-11-05T09:46:37.025Z,946.96
2017-11-05T09:47:37.044Z,946.93
2017-11-05T09:48:37.063Z,946.97
2017-11-05T09:49:37.083Z,946.98
2017-11-05T09:50:37.102Z,946.98
2017-11-05T09:51:37.121Z,946.94
2017-11-05T09:52:37.141Z,946.96
2017-11-05T09:53:37.211Z,947.02
2017-11-05T09:54:37.181Z,946.98
2017-11-05T09:55:37.199Z,947
2017-11-05T09:56:37.225Z,947
2017-11-05T09:57:37.238Z,947.05
2017-11-05T09:58:37.258Z,947.06
2017-11-05T09:59:37.280Z,947.08
2017-11-05T10:00:37.302Z,947.11
2017-11-05T10:01:37.318Z,947.11
2017-11-05T10:02:37.338Z,947.14
2017-11-05T10:03:37.357Z,947.23
2017-11-05T10:04:37.377Z,947.21
2017-11-05T10:05:37.398Z,947.22
2017-11-05T10:06:37.416Z,947.21
2017-11-05T10:07:37.438Z,947.15
2017-11-05T10:08:37.456Z,947.13
2017-11-05T10:09:37.477Z,947.11
2017-11-05T10:10:37.546Z,947.06
2017-11-05T10:11:37.517Z,947.09
2017-11-05T10:12:37.536Z,947.03
2017-11-05T10:13:37.558Z,947.05
2017-11-05T10:14:37.577Z,947.07
2017-11-05T10:15:37.595Z,947.01
2017-11-05T10:16:37.615Z,946.99
2017-11-05T10:17:37.634Z,947.03
2017-11-05T10:18:37.656Z,947.01
2017-11-05T10:19:37.676Z,947.05
2017-11-05T10:20:37.696Z,947.05
2017-11-05T10:21:37.715Z,947.09
2017-11-05T10:22:37.734Z,947.1
2017-11-05T10:23:37.755Z,947.07
2017-11-05T10:24:37.775Z,947.1
2017-11-05T10:25:37.845Z,947.1
2017-11-05T10:26:37.815Z,947.08
2017-11-05T10:27:37.845Z,947.1
2017-11-05T10:28:37.855Z,947.12
2017-11-05T10:29:37.874Z,947.16
2017-11-05T10:30:37.895Z,947.2
2017-11-05T10:31:37.914Z,947.24
2017-11-05T10:32:37.939Z,947.26
2017-11-05T10:33:37.953Z,947.28
2017-11-05T10:34:37.975Z,947.29
2017-11-05T10:35:37.996Z,947.31
2017-11-05T10:36:38.014Z,947.29
2017-11-05T10:37:38.034Z,947.28
2017-11-05T10:38:38.055Z,947.31
2017-11-05T10:39:38.075Z,947.34
2017-11-05T10:40:38.144Z,947.3
2017-11-05T10:41:38.115Z,947.33
2017-11-05T10:42:38.136Z,947.33
2017-11-05T10:43:38.156Z,947.32
2017-11-05T10:44:38.176Z,947.35
2017-11-05T10:45:38.197Z,947.32
2017-11-05T10:46:38.218Z,947.26
2017-11-05T10:47:38.240Z,947.18
2017-11-05T10:48:38.261Z,947.17
2017-11-05T10:49:38.283Z,947.14
2017-11-05T10:50:38.306Z,947.11
2017-11-05T10:51:38.328Z,947.11
2017-11-05T10:52:38.349Z,947.08
2017-11-05T10:53:38.377Z,947.12
2017-11-05T10:54:38.393Z,947.12
2017-11-05T10:55:38.465Z,947.11
2017-11-05T10:56:38.437Z,947.11
2017-11-05T10:57:38.460Z,947.14
2017-11-05T10:58:38.482Z,947.08
2017-11-05T10:59:38.505Z,947.07
2017-11-05T11:00:38.526Z,947.14
2017-11-05T11:01:38.551Z,947.09
2017-11-05T11:02:38.570Z,947.1
2017-11-05T11:03:38.591Z,947.09
2017-11-05T11:04:38.614Z,947.07
2017-11-05T11:05:38.633Z,947.04
2017-11-05T11:06:38.655Z,946.97
2017-11-05T11:07:38.677Z,946.94
2017-11-05T11:08:38.702Z,946.96
2017-11-05T11:09:38.722Z,946.86
2017-11-05T11:10:38.745Z,946.86
2017-11-05T11:11:38.763Z,946.9
2017-11-05T11:12:38.786Z,946.86
2017-11-05T11:13:38.805Z,946.86
2017-11-05T11:14:38.828Z,946.84
2017-11-05T11:15:38.852Z,946.83
2017-11-05T11:16:38.878Z,946.81
2017-11-05T11:17:38.891Z,946.81
2017-11-05T11:18:38.912Z,946.81
2017-11-05T11:19:38.936Z,946.77
2017-11-05T11:20:38.956Z,946.79
2017-11-05T11:21:38.982Z,946.78
2017-11-05T11:22:38.996Z,946.77
2017-11-05T11:23:39.018Z,946.82
2017-11-05T11:24:39.040Z,946.82
2017-11-05T11:25:39.083Z,946.81
2017-11-05T11:26:39.080Z,946.87
2017-11-05T11:27:39.105Z,946.87
2017-11-05T11:28:39.122Z,946.88
2017-11-05T11:29:39.144Z,946.89
2017-11-05T11:30:39.214Z,946.92
2017-11-05T11:31:39.191Z,946.93
2017-11-05T11:32:39.206Z,946.89
2017-11-05T11:33:39.228Z,946.86
2017-11-05T11:34:39.250Z,946.88
2017-11-05T11:35:39.269Z,946.86
2017-11-05T11:36:39.290Z,946.83
2017-11-05T11:37:39.312Z,946.84
2017-11-05T11:38:39.333Z,946.81
2017-11-05T11:39:39.353Z,946.84
2017-11-05T11:40:39.374Z,946.85
2017-11-05T11:41:39.395Z,946.84
2017-11-05T11:42:39.418Z,946.79
2017-11-05T11:43:39.437Z,946.81
2017-11-05T11:44:39.457Z,946.81
2017-11-05T11:45:39.528Z,946.78
2017-11-05T11:46:39.498Z,946.73
2017-11-05T11:47:39.520Z,946.68
2017-11-05T11:48:39.541Z,946.7
2017-11-05T11:49:39.562Z,946.71
2017-11-05T11:50:39.581Z,946.72
2017-11-05T11:51:39.608Z,946.67
2017-11-05T11:52:39.623Z,946.73
2017-11-05T11:53:39.645Z,946.76
2017-11-05T11:54:39.667Z,946.73
2017-11-05T11:55:39.685Z,946.68
2017-11-05T11:56:39.714Z,946.66
2017-11-05T11:57:39.739Z,946.61
2017-11-05T11:58:39.748Z,946.6
2017-11-05T11:59:39.768Z,946.63
2017-11-05T12:00:39.790Z,946.65
2017-11-05T12:01:39.808Z,946.73
2017-11-05T12:02:39.831Z,946.67
2017-11-05T12:03:39.851Z,946.66
2017-11-05T12:04:39.872Z,946.63
2017-11-05T12:05:39.892Z,946.64
2017-11-05T12:06:39.913Z,946.67
2017-11-05T12:07:39.933Z,946.62
2017-11-05T12:08:39.953Z,946.6
2017-11-05T12:09:39.974Z,946.59
2017-11-05T12:10:39.996Z,946.61
2017-11-05T12:11:40.016Z,946.6
2017-11-05T12:12:40.037Z,946.63
2017-11-05T12:13:40.056Z,946.64
2017-11-05T12:14:40.078Z,946.65
2017-11-05T12:15:40.098Z,946.69
2017-11-05T12:16:40.119Z,946.64
2017-11-05T12:17:40.140Z,946.64
2017-11-05T12:18:40.160Z,946.64
2017-11-05T12:19:40.180Z,946.67
2017-11-05T12:20:40.253Z,946.67
2017-11-05T12:21:40.226Z,946.65
2017-11-05T12:22:40.244Z,946.67
2017-11-05T12:23:40.264Z,946.64
2017-11-05T12:24:40.285Z,946.62
2017-11-05T12:25:40.305Z,946.61
2017-11-05T12:26:40.358Z,946.61
2017-11-05T12:27:40.345Z,946.62
2017-11-05T12:28:40.367Z,946.67
2017-11-05T12:29:40.403Z,946.7
2017-11-05T12:30:40.407Z,946.7
2017-11-05T12:31:40.430Z,946.79